sensor_id;sensor_type;location;lat;lon;timestamp;pressure;altitude;pressure_sealevel;temperature;humidity
47522;BME280;32291;52.010;4.446;2022-11-20T00:00:07;80337.06;;;-144.67;100.00
47522;BME280;32291;52.010;4.446;2022-11-20T00:01:21;80339.19;;;-144.67;100.00
47522;BME280;32291;52.010;4.446;2022-11-20T00:02:25;80352.06;;;-144.67;100.00
47522;BME280;32291;52.010;4.446;2022-11-20T00:03:28;80356.34;;;-144.67;100.00
47522;BME280;32291;52.010;4.446;2022-11-20T00:04:29;80352.06;;;-144.67;100.00
47522;BME280;32291;52.010;4.446;2022-11-20T00:05:33;80352.06;;;-144.67;100.00
47522;BME280;32291;52.010;4.446;2022-11-20T00:06:35;80349.91;;;-144.67;100.00
47522;BME280;32291;52.010;4.446;2022-11-20T00:07:37;80354.19;;;-144.67;100.00
47522;BME280;32291;52.010;4.446;2022-11-20T00:08:40;80354.19;;;-144.67;100.00
47522;BME280;32291;52.010;4.446;2022-11-20T00:09:42;80352.06;;;-144.67;100.00
47522;BME280;32291;52.010;4.446;2022-11-20T00:10:44;80345.63;;;-144.67;100.00
47522;BME280;32291;52.010;4.446;2022-11-20T00:11:47;80352.06;;;-144.67;100.00
47522;BME280;32291;52.010;4.446;2022-11-20T00:12:49;80349.91;;;-144.67;100.00
47522;BME280;32291;52.010;4.446;2022-11-20T00:13:55;80347.78;;;-144.67;100.00
47522;BME280;32291;52.010;4.446;2022-11-20T00:14:59;80347.78;;;-144.67;100.00
47522;BME280;32291;52.010;4.446;2022-11-20T00:16:04;80343.50;;;-144.67;100.00
47522;BME280;32291;52.010;4.446;2022-11-20T00:17:08;80347.78;;;-144.67;100.00
47522;BME280;32291;52.010;4.446;2022-11-20T00:18:11;80349.91;;;-144.67;100.00
47522;BME280;32291;52.010;4.446;2022-11-20T00:19:13;80343.50;;;-144.67;100.00
47522;BME280;32291;52.010;4.446;2022-11-20T00:20:18;80343.50;;;-144.67;100.00
47522;BME280;32291;52.010;4.446;2022-11-20T00:21:26;80341.34;;;-144.67;100.00
47522;BME280;32291;52.010;4.446;2022-11-20T00:22:29;80347.78;;;-144.67;100.00
47522;BME280;32291;52.010;4.446;2022-11-20T00:23:31;80347.78;;;-144.67;100.00
47522;BME280;32291;52.010;4.446;2022-11-20T00:24:33;80347.78;;;-144.67;100.00
47522;BME280;32291;52.010;4.446;2022-11-20T00:25:36;80354.19;;;-144.67;100.00
47522;BME280;32291;52.010;4.446;2022-11-20T00:26:38;80358.47;;;-144.67;100.00
47522;BME280;32291;52.010;4.446;2022-11-20T00:27:40;80358.47;;;-144.67;100.00
47522;BME280;32291;52.010;4.446;2022-11-20T00:28:43;80362.78;;;-144.67;100.00
47522;BME280;32291;52.010;4.446;2022-11-20T00:29:51;80364.91;;;-144.67;100.00
47522;BME280;32291;52.010;4.446;2022-11-20T00:31:04;80360.63;;;-144.67;100.00
47522;BME280;32291;52.010;4.446;2022-11-20T00:32:08;80356.34;;;-144.67;100.00
47522;BME280;32291;52.010;4.446;2022-11-20T00:33:10;80358.47;;;-144.67;100.00
47522;BME280;32291;52.010;4.446;2022-11-20T00:34:12;80356.34;;;-144.67;100.00
47522;BME280;32291;52.010;4.446;2022-11-20T00:35:15;80347.78;;;-144.67;100.00
47522;BME280;32291;52.010;4.446;2022-11-20T00:36:20;80349.91;;;-144.67;100.00
47522;BME280;32291;52.010;4.446;2022-11-20T00:37:24;80347.78;;;-144.67;100.00
47522;BME280;32291;52.010;4.446;2022-11-20T00:38:26;80343.50;;;-144.67;100.00
47522;BME280;32291;52.010;4.446;2022-11-20T00:39:28;80343.50;;;-144.67;100.00
47522;BME280;32291;52.010;4.446;2022-11-20T00:40:31;80343.50;;;-144.67;100.00
47522;BME280;32291;52.010;4.446;2022-11-20T00:41:33;80352.06;;;-144.67;100.00
47522;BME280;32291;52.010;4.446;2022-11-20T00:42:35;80341.34;;;-144.67;100.00
47522;BME280;32291;52.010;4.446;2022-11-20T00:43:39;80343.50;;;-144.67;100.00
47522;BME280;32291;52.010;4.446;2022-11-20T00:44:40;80337.06;;;-144.67;100.00
47522;BME280;32291;52.010;4.446;2022-11-20T00:45:43;80334.91;;;-144.67;100.00
47522;BME280;32291;52.010;4.446;2022-11-20T00:46:44;80341.34;;;-144.67;100.00
47522;BME280;32291;52.010;4.446;2022-11-20T00:47:46;80343.50;;;-144.67;100.00
47522;BME280;32291;52.010;4.446;2022-11-20T00:48:49;80341.34;;;-144.67;100.00
47522;BME280;32291;52.010;4.446;2022-11-20T00:49:51;80349.91;;;-144.67;100.00
47522;BME280;32291;52.010;4.446;2022-11-20T00:50:53;80343.50;;;-144.67;100.00
47522;BME280;32291;52.010;4.446;2022-11-20T00:51:55;80345.63;;;-144.67;100.00
47522;BME280;32291;52.010;4.446;2022-11-20T00:52:57;80341.34;;;-144.67;100.00
47522;BME280;32291;52.010;4.446;2022-11-20T00:53:59;80343.50;;;-144.67;100.00
47522;BME280;32291;52.010;4.446;2022-11-20T00:55:03;80345.63;;;-144.67;100.00
47522;BME280;32291;52.010;4.446;2022-11-20T00:56:10;80341.34;;;-144.67;100.00
47522;BME280;32291;52.010;4.446;2022-11-20T00:57:14;80339.19;;;-144.67;100.00
47522;BME280;32291;52.010;4.446;2022-11-20T00:58:16;80347.78;;;-144.67;100.00
47522;BME280;32291;52.010;4.446;2022-11-20T00:59:18;80347.78;;;-144.67;100.00
47522;BME280;32291;52.010;4.446;2022-11-20T01:00:20;80347.78;;;-144.67;100.00
47522;BME280;32291;52.010;4.446;2022-11-20T01:01:25;80354.19;;;-144.67;100.00
47522;BME280;32291;52.010;4.446;2022-11-20T01:02:27;80354.19;;;-144.67;100.00
47522;BME280;32291;52.010;4.446;2022-11-20T01:03:34;80356.34;;;-144.67;100.00
47522;BME280;32291;52.010;4.446;2022-11-20T01:04:38;80358.47;;;-144.67;100.00
47522;BME280;32291;52.010;4.446;2022-11-20T01:05:39;80358.47;;;-144.67;100.00
47522;BME280;32291;52.010;4.446;2022-11-20T01:06:42;80367.06;;;-144.67;100.00
47522;BME280;32291;52.010;4.446;2022-11-20T01:07:44;80373.47;;;-144.67;100.00
47522;BME280;32291;52.010;4.446;2022-11-20T01:08:48;80373.47;;;-144.67;100.00
47522;BME280;32291;52.010;4.446;2022-11-20T01:09:51;80373.47;;;-144.67;100.00
47522;BME280;32291;52.010;4.446;2022-11-20T01:11:02;80379.91;;;-144.67;100.00
47522;BME280;32291;52.010;4.446;2022-11-20T01:12:12;80382.03;;;-144.67;100.00
47522;BME280;32291;52.010;4.446;2022-11-20T01:13:14;80377.75;;;-144.67;100.00
47522;BME280;32291;52.010;4.446;2022-11-20T01:14:35;80360.63;;;-144.67;100.00
47522;BME280;32291;52.010;4.446;2022-11-20T01:15:37;80360.63;;;-144.67;100.00
47522;BME280;32291;52.010;4.446;2022-11-20T01:16:43;80360.63;;;-144.67;100.00
47522;BME280;32291;52.010;4.446;2022-11-20T01:17:47;80360.63;;;-144.67;100.00
47522;BME280;32291;52.010;4.446;2022-11-20T01:18:52;80349.91;;;-144.67;100.00
47522;BME280;32291;52.010;4.446;2022-11-20T01:19:55;80356.34;;;-144.67;100.00
47522;BME280;32291;52.010;4.446;2022-11-20T01:21:31;80343.50;;;-144.67;100.00
47522;BME280;32291;52.010;4.446;2022-11-20T01:22:35;80347.78;;;-144.67;100.00
47522;BME280;32291;52.010;4.446;2022-11-20T01:23:40;80352.06;;;-144.67;100.00
47522;BME280;32291;52.010;4.446;2022-11-20T01:24:43;80352.06;;;-144.67;100.00
47522;BME280;32291;52.010;4.446;2022-11-20T01:25:45;80352.06;;;-144.67;100.00
47522;BME280;32291;52.010;4.446;2022-11-20T01:26:50;80360.63;;;-144.67;100.00
47522;BME280;32291;52.010;4.446;2022-11-20T01:27:53;80369.19;;;-144.67;100.00
47522;BME280;32291;52.010;4.446;2022-11-20T01:28:57;80364.91;;;-144.67;100.00
47522;BME280;32291;52.010;4.446;2022-11-20T01:29:59;80360.63;;;-144.67;100.00
47522;BME280;32291;52.010;4.446;2022-11-20T01:31:01;80358.47;;;-144.67;100.00
47522;BME280;32291;52.010;4.446;2022-11-20T01:32:12;80345.63;;;-144.67;100.00
47522;BME280;32291;52.010;4.446;2022-11-20T01:33:14;80354.19;;;-144.67;100.00
47522;BME280;32291;52.010;4.446;2022-11-20T01:34:19;80343.50;;;-144.67;100.00
47522;BME280;32291;52.010;4.446;2022-11-20T01:35:22;80354.19;;;-144.67;100.00
47522;BME280;32291;52.010;4.446;2022-11-20T01:36:26;80352.06;;;-144.67;100.00
47522;BME280;32291;52.010;4.446;2022-11-20T01:37:29;80349.91;;;-144.67;100.00
47522;BME280;32291;52.010;4.446;2022-11-20T01:38:32;80356.34;;;-144.67;100.00
47522;BME280;32291;52.010;4.446;2022-11-20T01:39:34;80356.34;;;-144.67;100.00
47522;BME280;32291;52.010;4.446;2022-11-20T01:40:36;80356.34;;;-144.67;100.00
47522;BME280;32291;52.010;4.446;2022-11-20T01:41:39;80360.63;;;-144.67;100.00
47522;BME280;32291;52.010;4.446;2022-11-20T01:43:19;80364.91;;;-144.67;100.00
47522;BME280;32291;52.010;4.446;2022-11-20T01:44:59;80375.63;;;-144.67;100.00
47522;BME280;32291;52.010;4.446;2022-11-20T01:46:28;80371.34;;;-144.67;100.00
47522;BME280;32291;52.010;4.446;2022-11-20T01:47:37;80375.63;;;-144.67;100.00
47522;BME280;32291;52.010;4.446;2022-11-20T01:49:04;80371.34;;;-144.67;100.00
47522;BME280;32291;52.010;4.446;2022-11-20T01:50:26;80362.78;;;-144.67;100.00
47522;BME280;32291;52.010;4.446;2022-11-20T01:51:45;80369.19;;;-144.67;100.00
47522;BME280;32291;52.010;4.446;2022-11-20T01:53:02;80364.91;;;-144.67;100.00
47522;BME280;32291;52.010;4.446;2022-11-20T01:54:17;80371.34;;;-144.67;100.00
47522;BME280;32291;52.010;4.446;2022-11-20T01:55:31;80373.47;;;-144.67;100.00
47522;BME280;32291;52.010;4.446;2022-11-20T01:56:43;80373.47;;;-144.67;100.00
47522;BME280;32291;52.010;4.446;2022-11-20T01:57:48;80379.91;;;-144.67;100.00
47522;BME280;32291;52.010;4.446;2022-11-20T01:58:56;80382.03;;;-144.67;100.00
47522;BME280;32291;52.010;4.446;2022-11-20T02:00:10;80386.34;;;-144.67;100.00
47522;BME280;32291;52.010;4.446;2022-11-20T02:01:15;80386.34;;;-144.67;100.00
47522;BME280;32291;52.010;4.446;2022-11-20T02:02:17;80390.63;;;-144.67;100.00
47522;BME280;32291;52.010;4.446;2022-11-20T02:03:20;80379.91;;;-144.67;100.00
47522;BME280;32291;52.010;4.446;2022-11-20T02:04:23;80379.91;;;-144.67;100.00
47522;BME280;32291;52.010;4.446;2022-11-20T02:05:44;80373.47;;;-144.67;100.00
47522;BME280;32291;52.010;4.446;2022-11-20T02:07:02;80373.47;;;-144.67;100.00
47522;BME280;32291;52.010;4.446;2022-11-20T02:08:06;80364.91;;;-144.67;100.00
47522;BME280;32291;52.010;4.446;2022-11-20T02:09:08;80373.47;;;-144.67;100.00
47522;BME280;32291;52.010;4.446;2022-11-20T02:10:12;80373.47;;;-144.67;100.00
47522;BME280;32291;52.010;4.446;2022-11-20T02:11:14;80377.75;;;-144.67;100.00
47522;BME280;32291;52.010;4.446;2022-11-20T02:12:16;80382.03;;;-144.67;100.00
47522;BME280;32291;52.010;4.446;2022-11-20T02:13:37;80390.63;;;-144.67;100.00
47522;BME280;32291;52.010;4.446;2022-11-20T02:14:45;80390.63;;;-144.67;100.00
47522;BME280;32291;52.010;4.446;2022-11-20T02:15:47;80390.63;;;-144.67;100.00
47522;BME280;32291;52.010;4.446;2022-11-20T02:16:51;80384.19;;;-144.67;100.00
47522;BME280;32291;52.010;4.446;2022-11-20T02:17:54;80390.63;;;-144.67;100.00
47522;BME280;32291;52.010;4.446;2022-11-20T02:18:59;80388.47;;;-144.67;100.00
47522;BME280;32291;52.010;4.446;2022-11-20T02:20:03;80390.63;;;-144.67;100.00
47522;BME280;32291;52.010;4.446;2022-11-20T02:21:36;80379.91;;;-144.67;100.00
47522;BME280;32291;52.010;4.446;2022-11-20T02:23:09;80377.75;;;-144.67;100.00
47522;BME280;32291;52.010;4.446;2022-11-20T02:24:19;80382.03;;;-144.67;100.00
47522;BME280;32291;52.010;4.446;2022-11-20T02:25:26;80382.03;;;-144.67;100.00
47522;BME280;32291;52.010;4.446;2022-11-20T02:26:40;80386.34;;;-144.67;100.00
47522;BME280;32291;52.010;4.446;2022-11-20T02:27:47;80386.34;;;-144.67;100.00
47522;BME280;32291;52.010;4.446;2022-11-20T02:28:50;80390.63;;;-144.67;100.00
47522;BME280;32291;52.010;4.446;2022-11-20T02:29:57;80382.03;;;-144.67;100.00
47522;BME280;32291;52.010;4.446;2022-11-20T02:31:03;80388.47;;;-144.67;100.00
47522;BME280;32291;52.010;4.446;2022-11-20T02:32:18;80386.34;;;-144.67;100.00
47522;BME280;32291;52.010;4.446;2022-11-20T02:33:20;80388.47;;;-144.67;100.00
47522;BME280;32291;52.010;4.446;2022-11-20T02:34:22;80377.75;;;-144.67;100.00
47522;BME280;32291;52.010;4.446;2022-11-20T02:36:28;80371.34;;;-144.67;100.00
47522;BME280;32291;52.010;4.446;2022-11-20T02:37:37;80371.34;;;-144.67;100.00
47522;BME280;32291;52.010;4.446;2022-11-20T02:38:43;80371.34;;;-144.67;100.00
47522;BME280;32291;52.010;4.446;2022-11-20T02:39:51;80371.34;;;-144.67;100.00
47522;BME280;32291;52.010;4.446;2022-11-20T02:40:53;80369.19;;;-144.67;100.00
47522;BME280;32291;52.010;4.446;2022-11-20T02:41:56;80373.47;;;-144.67;100.00
47522;BME280;32291;52.010;4.446;2022-11-20T02:42:58;80369.19;;;-144.67;100.00
47522;BME280;32291;52.010;4.446;2022-11-20T02:44:01;80369.19;;;-144.67;100.00
47522;BME280;32291;52.010;4.446;2022-11-20T02:45:10;80369.19;;;-144.67;100.00
47522;BME280;32291;52.010;4.446;2022-11-20T02:46:13;80369.19;;;-144.67;100.00
47522;BME280;32291;52.010;4.446;2022-11-20T02:47:15;80369.19;;;-144.67;100.00
47522;BME280;32291;52.010;4.446;2022-11-20T02:48:17;80371.34;;;-144.67;100.00
47522;BME280;32291;52.010;4.446;2022-11-20T02:49:19;80373.47;;;-144.67;100.00
47522;BME280;32291;52.010;4.446;2022-11-20T02:50:21;80367.06;;;-144.67;100.00
47522;BME280;32291;52.010;4.446;2022-11-20T02:51:23;80373.47;;;-144.67;100.00
47522;BME280;32291;52.010;4.446;2022-11-20T02:52:26;80369.19;;;-144.67;100.00
47522;BME280;32291;52.010;4.446;2022-11-20T02:53:28;80373.47;;;-144.67;100.00
47522;BME280;32291;52.010;4.446;2022-11-20T02:54:30;80377.75;;;-144.67;100.00
47522;BME280;32291;52.010;4.446;2022-11-20T02:55:32;80373.47;;;-144.67;100.00
47522;BME280;32291;52.010;4.446;2022-11-20T02:56:34;80373.47;;;-144.67;100.00
47522;BME280;32291;52.010;4.446;2022-11-20T02:57:40;80369.19;;;-144.67;100.00
47522;BME280;32291;52.010;4.446;2022-11-20T02:58:42;80373.47;;;-144.67;100.00
47522;BME280;32291;52.010;4.446;2022-11-20T02:59:44;80377.75;;;-144.67;100.00
47522;BME280;32291;52.010;4.446;2022-11-20T03:00:46;80373.47;;;-144.67;100.00
47522;BME280;32291;52.010;4.446;2022-11-20T03:01:48;80377.75;;;-144.67;100.00
47522;BME280;32291;52.010;4.446;2022-11-20T03:02:50;80373.47;;;-144.67;100.00
47522;BME280;32291;52.010;4.446;2022-11-20T03:03:52;80382.03;;;-144.67;100.00
47522;BME280;32291;52.010;4.446;2022-11-20T03:04:56;80382.03;;;-144.67;100.00
47522;BME280;32291;52.010;4.446;2022-11-20T03:05:59;80373.47;;;-144.67;100.00
47522;BME280;32291;52.010;4.446;2022-11-20T03:07:02;80373.47;;;-144.67;100.00
47522;BME280;32291;52.010;4.446;2022-11-20T03:08:04;80371.34;;;-144.67;100.00
47522;BME280;32291;52.010;4.446;2022-11-20T03:09:06;80360.63;;;-144.67;100.00
47522;BME280;32291;52.010;4.446;2022-11-20T03:10:08;80358.47;;;-144.67;100.00
47522;BME280;32291;52.010;4.446;2022-11-20T03:11:10;80352.06;;;-144.67;100.00
47522;BME280;32291;52.010;4.446;2022-11-20T03:12:14;80364.91;;;-144.67;100.00
47522;BME280;32291;52.010;4.446;2022-11-20T03:13:16;80352.06;;;-144.67;100.00
47522;BME280;32291;52.010;4.446;2022-11-20T03:14:18;80349.91;;;-144.67;100.00
47522;BME280;32291;52.010;4.446;2022-11-20T03:15:22;80352.06;;;-144.67;100.00
47522;BME280;32291;52.010;4.446;2022-11-20T03:16:25;80354.19;;;-144.67;100.00
47522;BME280;32291;52.010;4.446;2022-11-20T03:17:27;80352.06;;;-144.67;100.00
47522;BME280;32291;52.010;4.446;2022-11-20T03:18:31;80356.34;;;-144.67;100.00
47522;BME280;32291;52.010;4.446;2022-11-20T03:19:33;80356.34;;;-144.67;100.00
47522;BME280;32291;52.010;4.446;2022-11-20T03:20:35;80356.34;;;-144.67;100.00
47522;BME280;32291;52.010;4.446;2022-11-20T03:21:37;80349.91;;;-144.67;100.00
47522;BME280;32291;52.010;4.446;2022-11-20T03:22:40;80354.19;;;-144.67;100.00
47522;BME280;32291;52.010;4.446;2022-11-20T03:23:42;80339.19;;;-144.67;100.00
47522;BME280;32291;52.010;4.446;2022-11-20T03:24:45;80352.06;;;-144.67;100.00
47522;BME280;32291;52.010;4.446;2022-11-20T03:25:47;80347.78;;;-144.67;100.00
47522;BME280;32291;52.010;4.446;2022-11-20T03:26:49;80345.63;;;-144.67;100.00
47522;BME280;32291;52.010;4.446;2022-11-20T03:27:51;80352.06;;;-144.67;100.00
47522;BME280;32291;52.010;4.446;2022-11-20T03:28:59;80352.06;;;-144.67;100.00
47522;BME280;32291;52.010;4.446;2022-11-20T03:30:04;80347.78;;;-144.67;100.00
47522;BME280;32291;52.010;4.446;2022-11-20T03:31:13;80347.78;;;-144.67;100.00
47522;BME280;32291;52.010;4.446;2022-11-20T03:32:16;80345.63;;;-144.67;100.00
47522;BME280;32291;52.010;4.446;2022-11-20T03:33:18;80347.78;;;-144.67;100.00
47522;BME280;32291;52.010;4.446;2022-11-20T03:34:20;80360.63;;;-144.67;100.00
47522;BME280;32291;52.010;4.446;2022-11-20T03:35:22;80360.63;;;-144.67;100.00
47522;BME280;32291;52.010;4.446;2022-11-20T03:36:25;80358.47;;;-144.67;100.00
47522;BME280;32291;52.010;4.446;2022-11-20T03:37:28;80352.06;;;-144.67;100.00
47522;BME280;32291;52.010;4.446;2022-11-20T03:38:31;80354.19;;;-144.67;100.00
47522;BME280;32291;52.010;4.446;2022-11-20T03:39:34;80356.34;;;-144.67;100.00
47522;BME280;32291;52.010;4.446;2022-11-20T03:40:36;80362.78;;;-144.67;100.00
47522;BME280;32291;52.010;4.446;2022-11-20T03:41:41;80369.19;;;-144.67;100.00
47522;BME280;32291;52.010;4.446;2022-11-20T03:42:43;80367.06;;;-144.67;100.00
47522;BME280;32291;52.010;4.446;2022-11-20T03:44:59;80367.06;;;-144.67;100.00
47522;BME280;32291;52.010;4.446;2022-11-20T03:46:02;80364.91;;;-144.67;100.00
47522;BME280;32291;52.010;4.446;2022-11-20T03:47:05;80364.91;;;-144.67;100.00
47522;BME280;32291;52.010;4.446;2022-11-20T03:48:07;80364.91;;;-144.67;100.00
47522;BME280;32291;52.010;4.446;2022-11-20T03:49:09;80364.91;;;-144.67;100.00
47522;BME280;32291;52.010;4.446;2022-11-20T03:50:15;80369.19;;;-144.67;100.00
47522;BME280;32291;52.010;4.446;2022-11-20T03:51:21;80371.34;;;-144.67;100.00
47522;BME280;32291;52.010;4.446;2022-11-20T03:52:33;80373.47;;;-144.67;100.00
47522;BME280;32291;52.010;4.446;2022-11-20T03:53:36;80371.34;;;-144.67;100.00
47522;BME280;32291;52.010;4.446;2022-11-20T03:54:37;80369.19;;;-144.67;100.00
47522;BME280;32291;52.010;4.446;2022-11-20T03:55:40;80362.78;;;-144.67;100.00
47522;BME280;32291;52.010;4.446;2022-11-20T03:56:42;80356.34;;;-144.67;100.00
47522;BME280;32291;52.010;4.446;2022-11-20T03:57:44;80349.91;;;-144.67;100.00
47522;BME280;32291;52.010;4.446;2022-11-20T03:58:46;80347.78;;;-144.67;100.00
47522;BME280;32291;52.010;4.446;2022-11-20T03:59:48;80343.50;;;-144.67;100.00
47522;BME280;32291;52.010;4.446;2022-11-20T04:00:50;80343.50;;;-144.67;100.00
47522;BME280;32291;52.010;4.446;2022-11-20T04:01:52;80341.34;;;-144.67;100.00
47522;BME280;32291;52.010;4.446;2022-11-20T04:02:57;80343.50;;;-144.67;100.00
47522;BME280;32291;52.010;4.446;2022-11-20T04:04:00;80343.50;;;-144.67;100.00
47522;BME280;32291;52.010;4.446;2022-11-20T04:05:03;80343.50;;;-144.67;100.00
47522;BME280;32291;52.010;4.446;2022-11-20T04:06:22;80347.78;;;-144.67;100.00
47522;BME280;32291;52.010;4.446;2022-11-20T04:07:26;80352.06;;;-144.67;100.00
47522;BME280;32291;52.010;4.446;2022-11-20T04:08:29;80352.06;;;-144.67;100.00
47522;BME280;32291;52.010;4.446;2022-11-20T04:09:32;80347.78;;;-144.67;100.00
47522;BME280;32291;52.010;4.446;2022-11-20T04:10:35;80345.63;;;-144.67;100.00
47522;BME280;32291;52.010;4.446;2022-11-20T04:11:40;80347.78;;;-144.67;100.00
47522;BME280;32291;52.010;4.446;2022-11-20T04:12:43;80339.19;;;-144.67;100.00
47522;BME280;32291;52.010;4.446;2022-11-20T04:13:54;80337.06;;;-144.67;100.00
47522;BME280;32291;52.010;4.446;2022-11-20T04:14:58;80332.78;;;-144.67;100.00
47522;BME280;32291;52.010;4.446;2022-11-20T04:15:59;80339.19;;;-144.67;100.00
47522;BME280;32291;52.010;4.446;2022-11-20T04:17:01;80334.91;;;-144.67;100.00
47522;BME280;32291;52.010;4.446;2022-11-20T04:18:05;80343.50;;;-144.67;100.00
47522;BME280;32291;52.010;4.446;2022-11-20T04:19:13;80334.91;;;-144.67;100.00
47522;BME280;32291;52.010;4.446;2022-11-20T04:20:16;80334.91;;;-144.67;100.00
47522;BME280;32291;52.010;4.446;2022-11-20T04:21:18;80330.63;;;-144.67;100.00
47522;BME280;32291;52.010;4.446;2022-11-20T04:22:20;80328.50;;;-144.67;100.00
47522;BME280;32291;52.010;4.446;2022-11-20T04:23:22;80330.63;;;-144.67;100.00
47522;BME280;32291;52.010;4.446;2022-11-20T04:24:24;80324.22;;;-144.67;100.00
47522;BME280;32291;52.010;4.446;2022-11-20T04:25:28;80319.91;;;-144.67;100.00
47522;BME280;32291;52.010;4.446;2022-11-20T04:26:31;80322.06;;;-144.67;100.00
47522;BME280;32291;52.010;4.446;2022-11-20T04:27:33;80322.06;;;-144.67;100.00
47522;BME280;32291;52.010;4.446;2022-11-20T04:28:36;80322.06;;;-144.67;100.00
47522;BME280;32291;52.010;4.446;2022-11-20T04:29:39;80330.63;;;-144.67;100.00
47522;BME280;32291;52.010;4.446;2022-11-20T04:30:41;80334.91;;;-144.67;100.00
47522;BME280;32291;52.010;4.446;2022-11-20T04:31:44;80330.63;;;-144.67;100.00
47522;BME280;32291;52.010;4.446;2022-11-20T04:32:46;80326.34;;;-144.67;100.00
47522;BME280;32291;52.010;4.446;2022-11-20T04:33:48;80330.63;;;-144.67;100.00
47522;BME280;32291;52.010;4.446;2022-11-20T04:34:51;80322.06;;;-144.67;100.00
47522;BME280;32291;52.010;4.446;2022-11-20T04:35:53;80313.50;;;-144.67;100.00
47522;BME280;32291;52.010;4.446;2022-11-20T04:36:55;80317.78;;;-144.67;100.00
47522;BME280;32291;52.010;4.446;2022-11-20T04:37:57;80317.78;;;-144.67;100.00
47522;BME280;32291;52.010;4.446;2022-11-20T04:39:05;80317.78;;;-144.67;100.00
47522;BME280;32291;52.010;4.446;2022-11-20T04:40:08;80326.34;;;-144.67;100.00
47522;BME280;32291;52.010;4.446;2022-11-20T04:41:19;80330.63;;;-144.67;100.00
47522;BME280;32291;52.010;4.446;2022-11-20T04:42:22;80330.63;;;-144.67;100.00
47522;BME280;32291;52.010;4.446;2022-11-20T04:43:32;80339.19;;;-144.67;100.00
47522;BME280;32291;52.010;4.446;2022-11-20T04:44:34;80339.19;;;-144.67;100.00
47522;BME280;32291;52.010;4.446;2022-11-20T04:45:36;80330.63;;;-144.67;100.00
47522;BME280;32291;52.010;4.446;2022-11-20T04:46:41;80337.06;;;-144.67;100.00
47522;BME280;32291;52.010;4.446;2022-11-20T04:47:44;80330.63;;;-144.67;100.00
47522;BME280;32291;52.010;4.446;2022-11-20T04:48:47;80334.91;;;-144.67;100.00
47522;BME280;32291;52.010;4.446;2022-11-20T04:49:49;80334.91;;;-144.67;100.00
47522;BME280;32291;52.010;4.446;2022-11-20T04:50:52;80322.06;;;-144.67;100.00
47522;BME280;32291;52.010;4.446;2022-11-20T04:51:55;80330.63;;;-144.67;100.00
47522;BME280;32291;52.010;4.446;2022-11-20T04:52:57;80330.63;;;-144.67;100.00
47522;BME280;32291;52.010;4.446;2022-11-20T04:53:59;80322.06;;;-144.67;100.00
47522;BME280;32291;52.010;4.446;2022-11-20T04:55:01;80332.78;;;-144.67;100.00
47522;BME280;32291;52.010;4.446;2022-11-20T04:56:09;80330.63;;;-144.67;100.00
47522;BME280;32291;52.010;4.446;2022-11-20T04:57:14;80334.91;;;-144.67;100.00
47522;BME280;32291;52.010;4.446;2022-11-20T04:58:16;80343.50;;;-144.67;100.00
47522;BME280;32291;52.010;4.446;2022-11-20T04:59:18;80347.78;;;-144.67;100.00
47522;BME280;32291;52.010;4.446;2022-11-20T05:00:20;80343.50;;;-144.67;100.00
47522;BME280;32291;52.010;4.446;2022-11-20T05:01:24;80347.78;;;-144.67;100.00
47522;BME280;32291;52.010;4.446;2022-11-20T05:02:26;80337.06;;;-144.67;100.00
47522;BME280;32291;52.010;4.446;2022-11-20T05:03:29;80339.19;;;-144.67;100.00
47522;BME280;32291;52.010;4.446;2022-11-20T05:04:32;80345.63;;;-144.67;100.00
47522;BME280;32291;52.010;4.446;2022-11-20T05:05:35;80354.19;;;-144.67;100.00
47522;BME280;32291;52.010;4.446;2022-11-20T05:06:37;80349.91;;;-144.67;100.00
47522;BME280;32291;52.010;4.446;2022-11-20T05:07:39;80352.06;;;-144.67;100.00
47522;BME280;32291;52.010;4.446;2022-11-20T05:08:41;80354.19;;;-144.67;100.00
47522;BME280;32291;52.010;4.446;2022-11-20T05:09:43;80354.19;;;-144.67;100.00
47522;BME280;32291;52.010;4.446;2022-11-20T05:10:46;80360.63;;;-144.67;100.00
47522;BME280;32291;52.010;4.446;2022-11-20T05:11:48;80360.63;;;-144.67;100.00
47522;BME280;32291;52.010;4.446;2022-11-20T05:12:50;80362.78;;;-144.67;100.00
47522;BME280;32291;52.010;4.446;2022-11-20T05:13:52;80364.91;;;-144.67;100.00
47522;BME280;32291;52.010;4.446;2022-11-20T05:14:54;80356.34;;;-144.67;100.00
47522;BME280;32291;52.010;4.446;2022-11-20T05:16:06;80360.63;;;-144.67;100.00
47522;BME280;32291;52.010;4.446;2022-11-20T05:17:11;80362.78;;;-144.67;100.00
47522;BME280;32291;52.010;4.446;2022-11-20T05:18:14;80373.47;;;-144.67;100.00
47522;BME280;32291;52.010;4.446;2022-11-20T05:19:16;80367.06;;;-144.67;100.00
47522;BME280;32291;52.010;4.446;2022-11-20T05:20:19;80364.91;;;-144.67;100.00
47522;BME280;32291;52.010;4.446;2022-11-20T05:21:22;80360.63;;;-144.67;100.00
47522;BME280;32291;52.010;4.446;2022-11-20T05:22:24;80352.06;;;-144.67;100.00
47522;BME280;32291;52.010;4.446;2022-11-20T05:23:27;80349.91;;;-144.67;100.00
47522;BME280;32291;52.010;4.446;2022-11-20T05:24:30;80339.19;;;-144.67;100.00
47522;BME280;32291;52.010;4.446;2022-11-20T05:25:32;80349.91;;;-144.67;100.00
47522;BME280;32291;52.010;4.446;2022-11-20T05:26:34;80345.63;;;-144.67;100.00
47522;BME280;32291;52.010;4.446;2022-11-20T05:27:37;80345.63;;;-144.67;100.00
47522;BME280;32291;52.010;4.446;2022-11-20T05:28:39;80352.06;;;-144.67;100.00
47522;BME280;32291;52.010;4.446;2022-11-20T05:29:41;80352.06;;;-144.67;100.00
47522;BME280;32291;52.010;4.446;2022-11-20T05:30:44;80360.63;;;-144.67;100.00
47522;BME280;32291;52.010;4.446;2022-11-20T05:31:45;80364.91;;;-144.67;100.00